Terminal Aerodrome Forecast
Issued by NWS

Home | Current Version | Previous Version | Text Only | Print | Product List | Glossary On
Versions: 1 2 3 4 5 6 7 8 9 10 11 12 13 14 15 16 17 18 19 20 21 22 23 24 25 26
000
FTUS43 KSGF 260644 AAA
TAFJLN
TAF AMD
KJLN 260644Z 2607/2706 23005KT P6SM BKN012 OVC018
     FM260900 24005KT 5SM BR BKN010
     FM261300 25004KT P6SM BKN020
     FM261500 23006KT P6SM SCT045
     FM262000 20005KT P6SM SCT250
     FM270000 12006KT P6SM -SHRA SCT040 BKN070=

USA.gov is the U.S. government's official web portal to all federal, state and local government web resources and services.